createdAt,value
2017-12-27T00:00:55.034Z,2.60
2017-12-27T00:03:28.748Z,2.37
2017-12-27T00:06:02.094Z,2.87
2017-12-27T00:08:50.329Z,2.00
2017-12-27T00:11:23.423Z,2.10
2017-12-27T00:13:56.777Z,2.53
2017-12-27T00:16:29.701Z,2.87
2017-12-27T00:19:02.850Z,2.20
2017-12-27T00:21:35.939Z,2.70
2017-12-27T00:24:09.418Z,2.80
2017-12-27T00:26:42.869Z,2.60
2017-12-27T00:29:16.322Z,2.70
2017-12-27T00:31:43.811Z,2.77
2017-12-27T00:34:11.553Z,2.50
2017-12-27T00:36:38.978Z,2.23
2017-12-27T00:39:06.635Z,2.60
2017-12-27T00:41:33.982Z,2.50
2017-12-27T00:44:01.331Z,2.63
2017-12-27T00:46:28.742Z,2.37
2017-12-27T00:48:56.110Z,2.20
2017-12-27T00:51:23.446Z,3.07
2017-12-27T00:53:50.780Z,2.60
2017-12-27T00:56:18.121Z,2.60
2017-12-27T00:58:45.502Z,2.60
2017-12-27T01:01:13.128Z,2.50
2017-12-27T01:03:40.599Z,2.83
2017-12-27T01:06:07.935Z,2.97
2017-12-27T01:08:35.642Z,2.60
2017-12-27T01:11:03.182Z,2.73
2017-12-27T01:13:30.990Z,2.70
2017-12-27T01:15:58.703Z,2.60
2017-12-27T01:18:26.389Z,2.50
2017-12-27T01:20:53.738Z,3.20
2017-12-27T01:23:21.118Z,2.90
2017-12-27T01:25:48.694Z,2.67
2017-12-27T01:28:16.057Z,2.93
2017-12-27T01:30:43.430Z,2.20
2017-12-27T01:33:10.838Z,2.60
2017-12-27T01:35:38.137Z,2.60
2017-12-27T01:38:05.579Z,2.80
2017-12-27T01:40:32.962Z,2.87
2017-12-27T01:43:00.689Z,3.13
2017-12-27T01:45:28.425Z,2.67
2017-12-27T01:47:56.127Z,3.00
2017-12-27T01:50:23.562Z,2.73
2017-12-27T01:52:51.360Z,2.93
2017-12-27T01:55:18.662Z,3.00
2017-12-27T01:57:46.446Z,3.00
2017-12-27T02:00:13.807Z,2.87
2017-12-27T02:02:41.230Z,3.17
2017-12-27T02:05:08.566Z,2.83
2017-12-27T02:07:36.023Z,3.27
2017-12-27T02:10:03.542Z,3.30
2017-12-27T02:12:30.994Z,3.17
2017-12-27T02:15:00.619Z,3.13
2017-12-27T02:17:27.980Z,2.90
2017-12-27T02:19:55.766Z,3.00
2017-12-27T02:22:23.637Z,2.70
2017-12-27T02:24:51.250Z,3.00
2017-12-27T02:27:18.634Z,3.23
2017-12-27T02:29:46.430Z,3.50
2017-12-27T02:32:14.094Z,3.53
2017-12-27T02:34:41.486Z,3.33
2017-12-27T02:37:08.852Z,3.93
2017-12-27T02:39:56.910Z,3.43
2017-12-27T02:42:24.638Z,3.43
2017-12-27T02:44:52.393Z,3.07
2017-12-27T02:47:19.856Z,3.37
2017-12-27T02:49:47.637Z,3.67
2017-12-27T02:52:14.942Z,3.60
2017-12-27T02:54:42.354Z,3.80
2017-12-27T02:57:10.046Z,3.50
2017-12-27T02:59:37.346Z,3.50
2017-12-27T03:02:04.784Z,3.30
2017-12-27T03:04:32.494Z,3.37
2017-12-27T03:07:00.327Z,3.80
2017-12-27T03:09:28.102Z,4.30
2017-12-27T03:11:55.795Z,4.20
2017-12-27T03:14:23.527Z,4.20
2017-12-27T03:16:51.239Z,4.50
2017-12-27T03:19:18.927Z,4.00
2017-12-27T03:21:46.270Z,4.60
2017-12-27T03:24:13.597Z,4.40
2017-12-27T03:26:41.365Z,4.40
2017-12-27T03:29:09.022Z,4.63
2017-12-27T03:31:36.374Z,4.43
2017-12-27T03:34:04.041Z,4.50
2017-12-27T03:36:31.679Z,4.77
2017-12-27T03:38:59.010Z,4.53
2017-12-27T03:41:26.378Z,4.30
2017-12-27T03:43:53.794Z,4.20
2017-12-27T03:46:21.189Z,4.30
2017-12-27T03:48:48.882Z,4.43
2017-12-27T03:51:16.542Z,4.17
2017-12-27T03:53:43.914Z,4.27
2017-12-27T03:56:11.566Z,4.53
2017-12-27T03:58:39.383Z,4.50
2017-12-27T04:01:07.098Z,4.70
2017-12-27T04:03:34.814Z,4.70
2017-12-27T04:06:02.522Z,4.87
2017-12-27T04:08:30.229Z,5.20
2017-12-27T04:10:57.771Z,4.20
2017-12-27T04:13:25.125Z,4.37
2017-12-27T04:15:52.541Z,4.30
2017-12-27T04:18:19.913Z,4.87
2017-12-27T04:20:47.369Z,4.70
2017-12-27T04:23:14.930Z,4.53
2017-12-27T04:25:42.249Z,4.80
2017-12-27T04:28:09.986Z,4.20
2017-12-27T04:30:37.678Z,4.17
2017-12-27T04:33:05.029Z,4.33
2017-12-27T04:35:32.437Z,4.37
2017-12-27T04:37:59.742Z,4.67
2017-12-27T04:40:27.101Z,4.20
2017-12-27T04:42:54.465Z,4.17
2017-12-27T04:45:21.858Z,4.43
2017-12-27T04:47:49.169Z,4.57
2017-12-27T04:50:16.590Z,4.23
2017-12-27T04:52:43.895Z,4.43
2017-12-27T04:55:11.278Z,4.30
2017-12-27T04:57:38.650Z,4.20
2017-12-27T05:00:06.050Z,4.40
2017-12-27T05:02:33.442Z,4.40
2017-12-27T05:05:00.749Z,4.47
2017-12-27T05:07:28.175Z,4.57
2017-12-27T05:09:55.642Z,4.80
2017-12-27T05:12:23.069Z,4.33
2017-12-27T05:14:50.394Z,4.63
2017-12-27T05:17:17.834Z,4.40
2017-12-27T05:19:45.222Z,4.77
2017-12-27T05:22:12.597Z,4.50
2017-12-27T05:24:40.323Z,4.23
2017-12-27T05:27:08.189Z,3.83
2017-12-27T05:29:35.813Z,3.97
2017-12-27T05:32:03.655Z,3.67
2017-12-27T05:34:31.005Z,3.80
2017-12-27T05:36:58.746Z,3.80
2017-12-27T05:39:26.552Z,4.50
2017-12-27T05:41:53.938Z,3.90
2017-12-27T05:44:21.661Z,4.03
2017-12-27T05:46:49.070Z,5.13
2017-12-27T05:49:16.696Z,4.77
2017-12-27T05:51:44.046Z,4.27
2017-12-27T05:54:11.791Z,3.93
2017-12-27T05:56:39.189Z,3.80
2017-12-27T05:59:06.535Z,4.80
2017-12-27T06:01:33.881Z,3.40
2017-12-27T06:04:01.200Z,3.50
2017-12-27T06:06:28.506Z,3.50
2017-12-27T06:08:55.905Z,3.50
2017-12-27T06:11:23.204Z,3.90
2017-12-27T06:13:50.511Z,4.10
2017-12-27T06:16:17.882Z,4.43
2017-12-27T06:18:45.402Z,4.07
2017-12-27T06:21:12.874Z,4.73
2017-12-27T06:23:40.242Z,3.87
2017-12-27T06:26:07.550Z,3.37
2017-12-27T06:28:35.113Z,3.37
2017-12-27T06:31:02.816Z,4.00
2017-12-27T06:33:30.578Z,3.67
2017-12-27T06:35:57.899Z,3.30
2017-12-27T06:38:25.583Z,3.57
2017-12-27T06:40:53.241Z,3.40
2017-12-27T06:43:20.854Z,3.40
2017-12-27T06:45:48.202Z,3.67
2017-12-27T06:48:15.841Z,3.50
2017-12-27T06:50:43.547Z,3.80
2017-12-27T06:53:10.919Z,3.80
2017-12-27T06:55:38.589Z,3.83
2017-12-27T06:58:06.266Z,3.27
2017-12-27T07:00:33.589Z,3.93
2017-12-27T07:03:01.311Z,4.40
2017-12-27T07:05:28.990Z,4.00
2017-12-27T07:07:56.346Z,4.23
2017-12-27T07:10:24.037Z,4.60
2017-12-27T07:12:51.894Z,4.57
2017-12-27T07:15:19.758Z,4.30
2017-12-27T07:17:47.638Z,4.40
2017-12-27T07:20:15.342Z,4.40
2017-12-27T07:22:43.030Z,4.50
2017-12-27T07:25:10.738Z,5.00
2017-12-27T07:27:38.490Z,4.97
2017-12-27T07:30:05.794Z,5.13
2017-12-27T07:32:33.226Z,5.50
2017-12-27T07:35:00.574Z,5.57
2017-12-27T07:37:27.893Z,5.87
2017-12-27T07:39:55.739Z,5.63
2017-12-27T07:42:23.101Z,5.50
2017-12-27T07:44:51.025Z,5.60
2017-12-27T07:47:18.418Z,6.43
2017-12-27T07:49:46.221Z,6.60
2017-12-27T07:52:13.852Z,6.47
2017-12-27T07:54:41.213Z,6.00
2017-12-27T07:57:08.521Z,6.30
2017-12-27T07:59:35.849Z,6.40
2017-12-27T08:02:03.554Z,6.27
2017-12-27T08:04:31.313Z,6.87
2017-12-27T08:06:59.034Z,6.90
2017-12-27T08:09:26.887Z,6.43
2017-12-27T08:11:54.206Z,6.40
2017-12-27T08:14:21.878Z,6.90
2017-12-27T08:16:49.305Z,7.53
2017-12-27T08:19:16.614Z,7.30
2017-12-27T08:21:43.922Z,7.10
2017-12-27T08:24:11.643Z,7.40
2017-12-27T08:26:39.270Z,7.00
2017-12-27T08:29:06.601Z,6.83
2017-12-27T08:31:33.909Z,7.30
2017-12-27T08:34:01.425Z,7.03
2017-12-27T08:36:29.013Z,7.30
2017-12-27T08:38:56.682Z,7.43
2017-12-27T08:41:24.072Z,7.20
2017-12-27T08:43:51.387Z,7.17
2017-12-27T08:46:19.037Z,7.10
2017-12-27T08:48:46.417Z,8.80
2017-12-27T08:51:14.062Z,7.70
2017-12-27T08:53:41.746Z,7.50
2017-12-27T08:56:09.377Z,7.23
2017-12-27T08:58:36.813Z,8.33
2017-12-27T09:01:04.550Z,8.10
2017-12-27T09:03:32.285Z,7.93
2017-12-27T09:05:59.945Z,8.57
2017-12-27T09:08:27.284Z,7.23
2017-12-27T09:10:54.600Z,7.90
2017-12-27T09:13:22.353Z,7.20
2017-12-27T09:15:49.750Z,7.37
2017-12-27T09:18:17.089Z,7.13
2017-12-27T09:20:45.050Z,8.03
2017-12-27T09:23:12.408Z,7.43
2017-12-27T09:25:40.129Z,7.90
2017-12-27T09:28:07.859Z,7.10
2017-12-27T09:30:35.239Z,7.70
2017-12-27T09:33:02.630Z,7.10
2017-12-27T09:35:30.322Z,6.90
2017-12-27T09:37:57.710Z,7.00
2017-12-27T09:40:25.258Z,7.43
2017-12-27T09:42:52.933Z,7.07
2017-12-27T09:45:20.310Z,7.40
2017-12-27T09:47:47.663Z,7.67
2017-12-27T09:50:15.083Z,8.17
2017-12-27T09:52:42.866Z,7.60
2017-12-27T09:55:10.501Z,7.27
2017-12-27T09:57:37.854Z,6.97
2017-12-27T10:00:05.195Z,7.00
2017-12-27T10:02:32.746Z,7.43
2017-12-27T10:05:00.571Z,7.23
2017-12-27T10:07:28.190Z,8.07
2017-12-27T10:09:55.548Z,7.33
2017-12-27T10:12:22.878Z,7.50
2017-12-27T10:14:50.564Z,11.27
2017-12-27T10:17:17.905Z,8.47
2017-12-27T10:19:45.267Z,7.90
2017-12-27T10:22:12.715Z,8.13
2017-12-27T10:24:40.083Z,7.23
2017-12-27T10:27:07.422Z,6.87
2017-12-27T10:29:35.413Z,8.10
2017-12-27T10:32:03.623Z,7.50
2017-12-27T10:34:31.018Z,8.60
2017-12-27T10:36:58.721Z,8.60
2017-12-27T10:39:26.086Z,7.83
2017-12-27T10:41:53.429Z,7.43
2017-12-27T10:44:21.093Z,7.93
2017-12-27T10:46:48.901Z,8.30
2017-12-27T10:49:16.330Z,7.80
2017-12-27T10:51:43.999Z,8.10
2017-12-27T10:54:11.762Z,8.13
2017-12-27T10:56:39.077Z,8.53
2017-12-27T10:59:06.450Z,7.90
2017-12-27T11:01:33.795Z,7.97
2017-12-27T11:04:01.483Z,7.77
2017-12-27T11:06:29.099Z,8.30
2017-12-27T11:08:56.448Z,8.00
2017-12-27T11:11:24.154Z,8.10
2017-12-27T11:13:51.486Z,8.67
2017-12-27T11:16:20.026Z,7.50
2017-12-27T11:18:47.414Z,7.90
2017-12-27T11:21:14.743Z,7.80
2017-12-27T11:23:42.120Z,8.07
2017-12-27T11:26:09.526Z,7.63
2017-12-27T11:28:36.954Z,7.33
2017-12-27T11:31:04.655Z,6.90
2017-12-27T11:33:31.949Z,7.27
2017-12-27T11:35:59.274Z,7.20
2017-12-27T11:38:27.006Z,7.47
2017-12-27T11:40:54.625Z,7.20
2017-12-27T11:43:22.301Z,7.13
2017-12-27T11:45:49.659Z,7.10
2017-12-27T11:48:17.315Z,7.60
2017-12-27T11:50:44.959Z,6.70
2017-12-27T11:53:12.314Z,7.33
2017-12-27T11:55:39.679Z,6.47
2017-12-27T11:58:06.979Z,6.47
2017-12-27T12:00:34.408Z,6.47
2017-12-27T12:03:01.947Z,6.83
2017-12-27T12:05:29.332Z,6.90
2017-12-27T12:07:56.666Z,5.90
2017-12-27T12:10:24.395Z,6.60
2017-12-27T12:12:51.838Z,6.47
2017-12-27T12:15:19.542Z,5.73
2017-12-27T12:17:46.919Z,6.17
2017-12-27T12:20:14.594Z,5.80
2017-12-27T12:22:42.221Z,5.40
2017-12-27T12:25:09.895Z,5.63
2017-12-27T12:27:37.567Z,5.30
2017-12-27T12:30:05.290Z,5.23
2017-12-27T12:32:32.739Z,6.10
2017-12-27T12:35:00.465Z,5.40
2017-12-27T12:37:27.810Z,5.47
2017-12-27T12:39:55.317Z,5.13
2017-12-27T12:42:23.057Z,5.83
2017-12-27T12:44:51.313Z,6.23
2017-12-27T12:47:18.953Z,6.50
2017-12-27T12:49:47.805Z,5.37
2017-12-27T12:52:15.281Z,5.83
2017-12-27T12:54:42.695Z,6.13
2017-12-27T12:57:10.094Z,5.40
2017-12-27T12:59:37.446Z,6.30
2017-12-27T13:02:04.794Z,5.40
2017-12-27T13:04:32.637Z,6.23
2017-12-27T13:06:59.951Z,6.20
2017-12-27T13:09:27.626Z,5.80
2017-12-27T13:11:54.962Z,6.73
2017-12-27T13:14:22.682Z,6.10
2017-12-27T13:16:50.234Z,6.70
2017-12-27T13:19:17.921Z,7.30
2017-12-27T13:21:45.298Z,6.83
2017-12-27T13:24:12.646Z,7.60
2017-12-27T13:26:40.304Z,6.80
2017-12-27T13:29:07.666Z,6.70
2017-12-27T13:31:35.349Z,7.70
2017-12-27T13:34:03.059Z,6.57
2017-12-27T13:36:30.490Z,7.13
2017-12-27T13:38:57.837Z,7.55
2017-12-27T13:41:25.165Z,7.80
2017-12-27T13:43:52.466Z,7.40
2017-12-27T13:46:20.196Z,7.90
2017-12-27T13:48:47.830Z,8.23
2017-12-27T13:51:15.708Z,7.53
2017-12-27T13:53:43.427Z,8.23
2017-12-27T13:56:10.905Z,8.10
2017-12-27T13:58:41.998Z,8.10
2017-12-27T14:01:10.253Z,8.40
2017-12-27T14:03:38.814Z,9.37
2017-12-27T14:06:06.277Z,9.40
2017-12-27T14:08:34.314Z,9.50
2017-12-27T14:11:02.064Z,9.00
2017-12-27T14:13:30.047Z,9.47
2017-12-27T14:15:57.618Z,9.80
2017-12-27T14:18:25.218Z,9.13
2017-12-27T14:20:53.743Z,8.80
2017-12-27T14:23:21.214Z,9.90
2017-12-27T14:25:48.602Z,9.33
2017-12-27T14:28:16.290Z,9.67
2017-12-27T14:30:43.598Z,9.63
2017-12-27T14:33:10.920Z,10.00
2017-12-27T14:35:38.772Z,10.70
2017-12-27T14:38:06.290Z,10.83
2017-12-27T14:40:43.897Z,9.97
2017-12-27T14:43:11.534Z,10.73
2017-12-27T14:45:39.057Z,10.53
2017-12-27T14:48:06.789Z,10.90
2017-12-27T14:50:34.618Z,10.90
2017-12-27T14:53:02.402Z,10.03
2017-12-27T14:55:30.018Z,9.80
2017-12-27T14:57:57.413Z,10.60
2017-12-27T15:00:24.977Z,9.63
2017-12-27T15:02:52.673Z,10.47
2017-12-27T15:05:19.997Z,10.13
2017-12-27T15:07:47.830Z,10.30
2017-12-27T15:10:15.690Z,9.90
2017-12-27T15:12:45.253Z,9.67
2017-12-27T15:15:13.358Z,10.50
2017-12-27T15:17:41.393Z,10.90
2017-12-27T15:20:08.794Z,10.80
2017-12-27T15:22:36.274Z,10.63
2017-12-27T15:25:03.625Z,11.53
2017-12-27T15:27:30.942Z,10.60
2017-12-27T15:29:58.303Z,10.60
2017-12-27T15:32:25.815Z,10.57
2017-12-27T15:34:53.330Z,10.60
2017-12-27T15:37:31.109Z,11.93
2017-12-27T15:39:58.414Z,11.80
2017-12-27T15:42:25.989Z,11.60
2017-12-27T15:44:53.649Z,11.67
2017-12-27T15:47:21.278Z,12.60
2017-12-27T15:49:48.622Z,13.20
2017-12-27T15:52:16.074Z,11.80
2017-12-27T15:54:43.457Z,12.87
2017-12-27T15:57:10.841Z,12.37
2017-12-27T15:59:38.173Z,12.80
2017-12-27T16:02:05.501Z,13.00
2017-12-27T16:04:32.938Z,13.20
2017-12-27T16:07:00.647Z,13.30
2017-12-27T16:09:28.362Z,12.33
2017-12-27T16:11:55.863Z,12.47
2017-12-27T16:14:23.178Z,13.43
2017-12-27T16:16:50.748Z,13.80
2017-12-27T16:19:18.130Z,14.40
2017-12-27T16:21:45.496Z,13.33
2017-12-27T16:24:13.292Z,14.70
2017-12-27T16:26:40.609Z,14.93
2017-12-27T16:29:07.960Z,16.70
2017-12-27T16:31:35.338Z,16.30
2017-12-27T16:34:03.362Z,15.77
2017-12-27T16:36:31.174Z,15.40
2017-12-27T16:38:58.798Z,14.67
2017-12-27T16:41:26.205Z,13.90
2017-12-27T16:43:53.610Z,13.57
2017-12-27T16:46:21.695Z,13.53
2017-12-27T16:48:49.169Z,13.57
2017-12-27T16:51:17.046Z,13.93
2017-12-27T16:53:44.548Z,13.57
2017-12-27T16:56:12.149Z,12.97
2017-12-27T16:58:39.990Z,14.00
2017-12-27T17:01:07.354Z,14.27
2017-12-27T17:03:34.745Z,14.30
2017-12-27T17:06:02.054Z,15.40
2017-12-27T17:08:29.568Z,16.63
2017-12-27T17:10:58.735Z,14.87
2017-12-27T17:13:26.343Z,16.10
2017-12-27T17:15:53.797Z,15.37
2017-12-27T17:18:21.249Z,16.70
2017-12-27T17:20:48.759Z,15.27
2017-12-27T17:23:16.110Z,16.07
2017-12-27T17:25:43.808Z,16.33
2017-12-27T17:28:11.561Z,16.07
2017-12-27T17:30:39.047Z,15.90
2017-12-27T17:33:07.210Z,17.40
2017-12-27T17:35:35.018Z,18.40
2017-12-27T17:38:02.681Z,16.70
2017-12-27T17:40:30.053Z,18.47
2017-12-27T17:42:57.846Z,18.10
2017-12-27T17:45:25.166Z,18.13
2017-12-27T17:47:53.061Z,18.10
2017-12-27T17:50:20.733Z,17.90
2017-12-27T17:52:48.193Z,17.13
2017-12-27T17:55:15.526Z,18.13
2017-12-27T17:57:43.221Z,16.87
2017-12-27T18:00:10.989Z,16.37
2017-12-27T18:02:38.710Z,17.63
2017-12-27T18:05:06.498Z,16.27
2017-12-27T18:07:33.862Z,16.70
2017-12-27T18:10:01.193Z,16.97
2017-12-27T18:12:28.881Z,16.80
2017-12-27T18:14:56.227Z,19.10
2017-12-27T18:17:23.612Z,18.50
2017-12-27T18:19:51.276Z,19.17
2017-12-27T18:22:18.675Z,17.43
2017-12-27T18:24:46.351Z,18.43
2017-12-27T18:27:14.247Z,18.17
2017-12-27T18:29:41.650Z,19.20
2017-12-27T18:32:09.413Z,19.83
2017-12-27T18:34:36.797Z,17.53
2017-12-27T18:37:04.758Z,17.30
2017-12-27T18:39:32.513Z,18.63
2017-12-27T18:41:59.954Z,20.33
2017-12-27T18:44:27.370Z,19.53
2017-12-27T18:46:54.730Z,16.80
2017-12-27T18:49:22.579Z,16.40
2017-12-27T18:51:49.902Z,17.43
2017-12-27T18:54:17.696Z,18.40
2017-12-27T18:56:45.942Z,18.47
2017-12-27T18:59:13.729Z,18.10
2017-12-27T19:01:41.344Z,17.93
2017-12-27T19:04:08.743Z,17.97
2017-12-27T19:06:36.582Z,17.13
2017-12-27T19:09:04.238Z,17.07
2017-12-27T19:11:32.502Z,16.27
2017-12-27T19:14:00.166Z,17.33
2017-12-27T19:16:27.825Z,18.77
2017-12-27T19:18:55.672Z,15.60
2017-12-27T19:21:23.562Z,16.83
2017-12-27T19:23:51.227Z,18.07
2017-12-27T19:26:19.164Z,16.77
2017-12-27T19:28:46.680Z,16.47
2017-12-27T19:31:14.330Z,17.07
2017-12-27T19:33:42.006Z,17.20
2017-12-27T19:36:09.659Z,17.43
2017-12-27T19:38:37.083Z,16.50
2017-12-27T19:41:04.806Z,16.60
2017-12-27T19:43:32.203Z,16.70
2017-12-27T19:45:59.639Z,17.30
2017-12-27T19:48:27.055Z,17.77
2017-12-27T19:50:54.846Z,18.57
2017-12-27T19:53:22.797Z,18.30
2017-12-27T19:55:50.126Z,16.93
2017-12-27T19:58:18.156Z,18.80
2017-12-27T20:00:45.613Z,18.90
2017-12-27T20:03:13.321Z,18.43
2017-12-27T20:05:41.087Z,17.87
2017-12-27T20:08:08.518Z,16.90
2017-12-27T20:10:36.524Z,18.30
2017-12-27T20:13:04.045Z,17.33
2017-12-27T20:15:31.426Z,19.20
2017-12-27T20:18:01.919Z,20.00
2017-12-27T20:20:29.505Z,19.40
2017-12-27T20:22:56.988Z,17.63
2017-12-27T20:25:24.521Z,19.23
2017-12-27T20:27:52.453Z,19.07
2017-12-27T20:30:20.158Z,19.20
2017-12-27T20:32:47.820Z,19.47
2017-12-27T20:35:15.626Z,19.43
2017-12-27T20:37:43.106Z,19.60
2017-12-27T20:40:10.731Z,19.30
2017-12-27T20:42:38.233Z,19.67
2017-12-27T20:45:05.610Z,22.17
2017-12-27T20:47:33.009Z,18.63
2017-12-27T20:50:00.866Z,19.63
2017-12-27T20:52:28.242Z,20.47
2017-12-27T20:54:55.965Z,19.30
2017-12-27T20:57:23.598Z,18.23
2017-12-27T20:59:51.038Z,19.10
2017-12-27T21:02:18.365Z,20.20
2017-12-27T21:04:46.087Z,20.00
2017-12-27T21:07:13.815Z,20.07
2017-12-27T21:09:41.178Z,20.50
2017-12-27T21:12:08.526Z,21.27
2017-12-27T21:14:36.106Z,20.50
2017-12-27T21:17:03.897Z,20.13
2017-12-27T21:19:31.529Z,20.83
2017-12-27T21:21:58.937Z,20.60
2017-12-27T21:24:26.422Z,20.10
2017-12-27T21:26:53.849Z,20.87
2017-12-27T21:29:21.198Z,21.20
2017-12-27T21:31:48.514Z,20.90
2017-12-27T21:34:16.213Z,21.77
2017-12-27T21:36:43.538Z,21.67
2017-12-27T21:39:11.380Z,21.37
2017-12-27T21:41:38.719Z,22.00
2017-12-27T21:44:06.046Z,21.03
2017-12-27T21:46:33.694Z,22.50
2017-12-27T21:49:06.945Z,22.87
2017-12-27T21:51:34.319Z,21.00
2017-12-27T21:54:01.646Z,21.50
2017-12-27T21:56:29.030Z,22.50
2017-12-27T21:59:02.529Z,20.50
2017-12-27T22:01:35.635Z,20.57
2017-12-27T22:04:03.638Z,22.97
2017-12-27T22:06:31.555Z,21.40
2017-12-27T22:08:59.434Z,20.20
2017-12-27T22:11:26.873Z,21.07
2017-12-27T22:13:56.175Z,22.07
2017-12-27T22:16:23.639Z,21.63
2017-12-27T22:18:50.961Z,20.40
2017-12-27T22:21:18.402Z,21.90
2017-12-27T22:23:46.355Z,20.70
2017-12-27T22:26:14.115Z,21.87
2017-12-27T22:28:41.932Z,21.10
2017-12-27T22:31:09.715Z,20.60
2017-12-27T22:33:37.081Z,21.10
2017-12-27T22:36:04.667Z,21.20
2017-12-27T22:38:32.284Z,19.70
2017-12-27T22:41:00.126Z,20.67
2017-12-27T22:43:28.193Z,21.27
2017-12-27T22:45:55.888Z,20.80
2017-12-27T22:48:23.659Z,20.77
2017-12-27T22:50:51.221Z,19.80
2017-12-27T22:53:18.979Z,20.43
2017-12-27T22:55:46.493Z,20.80
2017-12-27T22:58:14.031Z,18.40
2017-12-27T23:00:41.980Z,19.47
2017-12-27T23:03:09.846Z,19.80
2017-12-27T23:05:37.858Z,19.67
2017-12-27T23:08:06.297Z,20.80
2017-12-27T23:10:34.382Z,19.30
2017-12-27T23:13:02.735Z,18.97
2017-12-27T23:15:31.218Z,18.77
2017-12-27T23:17:59.247Z,18.20
2017-12-27T23:20:26.764Z,18.67
2017-12-27T23:22:54.302Z,18.30
2017-12-27T23:25:21.627Z,18.30
2017-12-27T23:27:48.972Z,20.90
2017-12-27T23:30:16.385Z,19.40
2017-12-27T23:32:44.003Z,18.30
2017-12-27T23:35:11.386Z,18.43
2017-12-27T23:37:38.740Z,18.93
2017-12-27T23:40:06.193Z,18.13
2017-12-27T23:42:33.613Z,18.97
2017-12-27T23:45:01.050Z,18.27
2017-12-27T23:47:28.475Z,18.90
2017-12-27T23:49:55.913Z,17.67
2017-12-27T23:52:23.485Z,17.40
2017-12-27T23:54:50.897Z,17.63
2017-12-27T23:57:18.324Z,17.40
2017-12-27T23:59:45.721Z,17.07
